sensor_id;sensor_type;location;lat;lon;timestamp;P1;durP1;ratioP1;P2;durP2;ratioP2
76202;SDS011;64985;46.364;17.008;2024-01-16T00:02:40;24.13;;;9.98;;
76202;SDS011;64985;46.364;17.008;2024-01-16T00:05:43;26.77;;;9.55;;
76202;SDS011;64985;46.364;17.008;2024-01-16T00:08:45;31.20;;;10.57;;
76202;SDS011;64985;46.364;17.008;2024-01-16T00:11:47;30.83;;;10.95;;
76202;SDS011;64985;46.364;17.008;2024-01-16T00:14:49;29.30;;;10.68;;
76202;SDS011;64985;46.364;17.008;2024-01-16T00:17:52;29.45;;;10.98;;
76202;SDS011;64985;46.364;17.008;2024-01-16T00:20:55;32.58;;;11.10;;
76202;SDS011;64985;46.364;17.008;2024-01-16T00:23:57;30.30;;;11.25;;
76202;SDS011;64985;46.364;17.008;2024-01-16T00:26:59;32.67;;;12.07;;
76202;SDS011;64985;46.364;17.008;2024-01-16T00:30:02;25.33;;;10.77;;
76202;SDS011;64985;46.364;17.008;2024-01-16T00:33:05;30.17;;;11.77;;
76202;SDS011;64985;46.364;17.008;2024-01-16T00:36:08;27.77;;;11.73;;
76202;SDS011;64985;46.364;17.008;2024-01-16T00:39:10;28.90;;;11.45;;
76202;SDS011;64985;46.364;17.008;2024-01-16T00:42:13;27.15;;;12.23;;
76202;SDS011;64985;46.364;17.008;2024-01-16T00:45:15;23.00;;;10.02;;
76202;SDS011;64985;46.364;17.008;2024-01-16T00:48:19;27.40;;;12.07;;
76202;SDS011;64985;46.364;17.008;2024-01-16T00:51:22;27.40;;;11.35;;
76202;SDS011;64985;46.364;17.008;2024-01-16T00:54:24;26.92;;;11.30;;
76202;SDS011;64985;46.364;17.008;2024-01-16T00:57:27;24.90;;;11.25;;
76202;SDS011;64985;46.364;17.008;2024-01-16T01:00:29;23.60;;;10.82;;
76202;SDS011;64985;46.364;17.008;2024-01-16T01:03:32;24.10;;;10.52;;
76202;SDS011;64985;46.364;17.008;2024-01-16T01:06:35;27.90;;;11.43;;
76202;SDS011;64985;46.364;17.008;2024-01-16T01:09:38;23.40;;;10.77;;
76202;SDS011;64985;46.364;17.008;2024-01-16T01:12:40;24.73;;;10.60;;
76202;SDS011;64985;46.364;17.008;2024-01-16T01:15:42;24.88;;;11.20;;
76202;SDS011;64985;46.364;17.008;2024-01-16T01:18:45;27.42;;;12.25;;
76202;SDS011;64985;46.364;17.008;2024-01-16T01:21:47;25.45;;;11.48;;
76202;SDS011;64985;46.364;17.008;2024-01-16T01:24:51;24.70;;;10.80;;
76202;SDS011;64985;46.364;17.008;2024-01-16T01:27:53;25.77;;;11.23;;
76202;SDS011;64985;46.364;17.008;2024-01-16T01:30:55;27.38;;;11.43;;
76202;SDS011;64985;46.364;17.008;2024-01-16T01:33:57;31.70;;;13.43;;
76202;SDS011;64985;46.364;17.008;2024-01-16T01:37:00;34.72;;;14.77;;
76202;SDS011;64985;46.364;17.008;2024-01-16T01:40:02;35.75;;;14.70;;
76202;SDS011;64985;46.364;17.008;2024-01-16T01:43:21;40.95;;;15.85;;
76202;SDS011;64985;46.364;17.008;2024-01-16T01:46:25;39.20;;;15.85;;
76202;SDS011;64985;46.364;17.008;2024-01-16T01:49:27;43.88;;;18.55;;
76202;SDS011;64985;46.364;17.008;2024-01-16T01:52:30;45.83;;;17.70;;
76202;SDS011;64985;46.364;17.008;2024-01-16T01:55:33;44.72;;;17.92;;
76202;SDS011;64985;46.364;17.008;2024-01-16T01:58:36;44.42;;;17.63;;
76202;SDS011;64985;46.364;17.008;2024-01-16T02:01:42;47.85;;;17.98;;
76202;SDS011;64985;46.364;17.008;2024-01-16T02:04:45;54.75;;;21.55;;
76202;SDS011;64985;46.364;17.008;2024-01-16T02:07:48;51.95;;;20.52;;
76202;SDS011;64985;46.364;17.008;2024-01-16T02:10:51;52.15;;;20.80;;
76202;SDS011;64985;46.364;17.008;2024-01-16T02:13:53;51.45;;;20.88;;
76202;SDS011;64985;46.364;17.008;2024-01-16T02:16:55;50.95;;;19.33;;
76202;SDS011;64985;46.364;17.008;2024-01-16T02:19:57;50.20;;;19.42;;
76202;SDS011;64985;46.364;17.008;2024-01-16T02:23:00;49.92;;;20.13;;
76202;SDS011;64985;46.364;17.008;2024-01-16T02:26:05;52.50;;;20.38;;
76202;SDS011;64985;46.364;17.008;2024-01-16T02:29:07;50.38;;;20.00;;
76202;SDS011;64985;46.364;17.008;2024-01-16T02:32:11;53.72;;;19.63;;
76202;SDS011;64985;46.364;17.008;2024-01-16T02:35:15;50.88;;;20.45;;
76202;SDS011;64985;46.364;17.008;2024-01-16T02:38:19;52.10;;;20.00;;
76202;SDS011;64985;46.364;17.008;2024-01-16T02:41:21;51.22;;;21.30;;
76202;SDS011;64985;46.364;17.008;2024-01-16T02:44:23;58.58;;;21.48;;
76202;SDS011;64985;46.364;17.008;2024-01-16T02:47:26;51.95;;;21.25;;
76202;SDS011;64985;46.364;17.008;2024-01-16T02:50:28;51.63;;;19.95;;
76202;SDS011;64985;46.364;17.008;2024-01-16T02:53:31;49.67;;;20.17;;
76202;SDS011;64985;46.364;17.008;2024-01-16T02:56:33;45.42;;;18.90;;
76202;SDS011;64985;46.364;17.008;2024-01-16T02:59:36;52.08;;;19.08;;
76202;SDS011;64985;46.364;17.008;2024-01-16T03:02:38;48.33;;;19.38;;
76202;SDS011;64985;46.364;17.008;2024-01-16T03:05:41;45.95;;;18.15;;
76202;SDS011;64985;46.364;17.008;2024-01-16T03:08:43;45.65;;;18.65;;
76202;SDS011;64985;46.364;17.008;2024-01-16T03:11:46;46.17;;;18.52;;
76202;SDS011;64985;46.364;17.008;2024-01-16T03:14:48;44.67;;;18.02;;
76202;SDS011;64985;46.364;17.008;2024-01-16T03:17:51;50.05;;;19.30;;
76202;SDS011;64985;46.364;17.008;2024-01-16T03:20:53;52.20;;;19.23;;
76202;SDS011;64985;46.364;17.008;2024-01-16T03:23:56;45.55;;;18.92;;
76202;SDS011;64985;46.364;17.008;2024-01-16T03:26:58;41.38;;;17.80;;
76202;SDS011;64985;46.364;17.008;2024-01-16T03:30:01;42.53;;;17.52;;
76202;SDS011;64985;46.364;17.008;2024-01-16T03:33:05;52.10;;;19.40;;
76202;SDS011;64985;46.364;17.008;2024-01-16T03:36:08;46.95;;;17.98;;
76202;SDS011;64985;46.364;17.008;2024-01-16T03:39:15;48.13;;;18.25;;
76202;SDS011;64985;46.364;17.008;2024-01-16T03:42:17;46.25;;;18.73;;
76202;SDS011;64985;46.364;17.008;2024-01-16T03:45:20;48.92;;;18.55;;
76202;SDS011;64985;46.364;17.008;2024-01-16T03:48:22;45.15;;;18.92;;
76202;SDS011;64985;46.364;17.008;2024-01-16T03:51:25;56.17;;;20.27;;
76202;SDS011;64985;46.364;17.008;2024-01-16T03:54:27;51.28;;;19.17;;
76202;SDS011;64985;46.364;17.008;2024-01-16T03:57:29;54.45;;;19.48;;
76202;SDS011;64985;46.364;17.008;2024-01-16T04:00:32;51.72;;;20.83;;
76202;SDS011;64985;46.364;17.008;2024-01-16T04:03:34;53.70;;;20.40;;
76202;SDS011;64985;46.364;17.008;2024-01-16T04:06:36;51.53;;;20.35;;
76202;SDS011;64985;46.364;17.008;2024-01-16T04:09:39;53.08;;;19.73;;
76202;SDS011;64985;46.364;17.008;2024-01-16T04:12:41;47.85;;;18.60;;
76202;SDS011;64985;46.364;17.008;2024-01-16T04:15:44;47.90;;;18.67;;
76202;SDS011;64985;46.364;17.008;2024-01-16T04:18:46;50.20;;;18.75;;
76202;SDS011;64985;46.364;17.008;2024-01-16T04:21:49;60.80;;;20.25;;
76202;SDS011;64985;46.364;17.008;2024-01-16T04:24:51;56.33;;;19.88;;
76202;SDS011;64985;46.364;17.008;2024-01-16T04:27:54;53.50;;;18.80;;
76202;SDS011;64985;46.364;17.008;2024-01-16T04:30:56;53.00;;;18.80;;
76202;SDS011;64985;46.364;17.008;2024-01-16T04:33:59;49.33;;;19.00;;
76202;SDS011;64985;46.364;17.008;2024-01-16T04:37:01;48.83;;;18.98;;
76202;SDS011;64985;46.364;17.008;2024-01-16T04:40:05;48.13;;;17.58;;
76202;SDS011;64985;46.364;17.008;2024-01-16T04:43:07;54.63;;;19.88;;
76202;SDS011;64985;46.364;17.008;2024-01-16T04:46:09;49.30;;;18.77;;
76202;SDS011;64985;46.364;17.008;2024-01-16T04:49:12;46.45;;;17.90;;
76202;SDS011;64985;46.364;17.008;2024-01-16T04:52:14;43.97;;;17.20;;
76202;SDS011;64985;46.364;17.008;2024-01-16T04:55:17;53.28;;;18.38;;
76202;SDS011;64985;46.364;17.008;2024-01-16T04:58:19;46.42;;;17.85;;
76202;SDS011;64985;46.364;17.008;2024-01-16T05:01:21;45.65;;;17.20;;
76202;SDS011;64985;46.364;17.008;2024-01-16T05:04:24;38.45;;;15.70;;
76202;SDS011;64985;46.364;17.008;2024-01-16T05:07:26;31.83;;;13.65;;
76202;SDS011;64985;46.364;17.008;2024-01-16T05:10:28;40.70;;;14.80;;
76202;SDS011;64985;46.364;17.008;2024-01-16T05:13:32;47.72;;;16.92;;
76202;SDS011;64985;46.364;17.008;2024-01-16T05:16:35;49.10;;;17.98;;
76202;SDS011;64985;46.364;17.008;2024-01-16T05:19:37;42.60;;;17.33;;
76202;SDS011;64985;46.364;17.008;2024-01-16T05:22:39;45.78;;;17.33;;
76202;SDS011;64985;46.364;17.008;2024-01-16T05:25:41;44.15;;;16.52;;
76202;SDS011;64985;46.364;17.008;2024-01-16T05:28:43;43.72;;;17.38;;
76202;SDS011;64985;46.364;17.008;2024-01-16T05:31:46;50.22;;;17.77;;
76202;SDS011;64985;46.364;17.008;2024-01-16T05:34:48;43.50;;;16.83;;
76202;SDS011;64985;46.364;17.008;2024-01-16T05:37:50;41.53;;;16.27;;
76202;SDS011;64985;46.364;17.008;2024-01-16T05:40:53;42.45;;;15.32;;
76202;SDS011;64985;46.364;17.008;2024-01-16T05:43:55;39.20;;;14.50;;
76202;SDS011;64985;46.364;17.008;2024-01-16T05:46:57;35.28;;;14.48;;
76202;SDS011;64985;46.364;17.008;2024-01-16T05:49:59;37.35;;;14.32;;
76202;SDS011;64985;46.364;17.008;2024-01-16T05:53:02;35.30;;;13.20;;
76202;SDS011;64985;46.364;17.008;2024-01-16T05:56:04;33.03;;;14.05;;
76202;SDS011;64985;46.364;17.008;2024-01-16T05:59:07;35.28;;;13.55;;
76202;SDS011;64985;46.364;17.008;2024-01-16T06:02:09;35.55;;;13.90;;
76202;SDS011;64985;46.364;17.008;2024-01-16T06:05:12;40.35;;;14.32;;
76202;SDS011;64985;46.364;17.008;2024-01-16T06:08:15;34.20;;;13.57;;
76202;SDS011;64985;46.364;17.008;2024-01-16T06:11:17;32.20;;;12.88;;
76202;SDS011;64985;46.364;17.008;2024-01-16T06:14:21;31.92;;;12.80;;
76202;SDS011;64985;46.364;17.008;2024-01-16T06:17:24;32.25;;;12.05;;
76202;SDS011;64985;46.364;17.008;2024-01-16T06:20:26;30.95;;;11.52;;
76202;SDS011;64985;46.364;17.008;2024-01-16T06:23:30;33.85;;;12.95;;
76202;SDS011;64985;46.364;17.008;2024-01-16T06:26:33;30.58;;;11.98;;
76202;SDS011;64985;46.364;17.008;2024-01-16T06:29:35;30.52;;;11.70;;
76202;SDS011;64985;46.364;17.008;2024-01-16T06:32:37;33.03;;;12.90;;
76202;SDS011;64985;46.364;17.008;2024-01-16T06:35:39;30.70;;;12.30;;
76202;SDS011;64985;46.364;17.008;2024-01-16T06:38:42;30.45;;;12.40;;
76202;SDS011;64985;46.364;17.008;2024-01-16T06:41:44;32.85;;;12.90;;
76202;SDS011;64985;46.364;17.008;2024-01-16T06:44:47;28.90;;;12.52;;
76202;SDS011;64985;46.364;17.008;2024-01-16T06:47:49;33.00;;;13.10;;
76202;SDS011;64985;46.364;17.008;2024-01-16T06:50:52;29.48;;;11.85;;
76202;SDS011;64985;46.364;17.008;2024-01-16T06:53:55;30.23;;;12.55;;
76202;SDS011;64985;46.364;17.008;2024-01-16T06:56:57;28.77;;;11.80;;
76202;SDS011;64985;46.364;17.008;2024-01-16T06:59:59;29.00;;;11.80;;
76202;SDS011;64985;46.364;17.008;2024-01-16T07:03:02;29.77;;;11.40;;
76202;SDS011;64985;46.364;17.008;2024-01-16T07:06:05;24.50;;;10.25;;
76202;SDS011;64985;46.364;17.008;2024-01-16T07:09:07;25.25;;;10.35;;
76202;SDS011;64985;46.364;17.008;2024-01-16T07:12:12;24.83;;;10.10;;
76202;SDS011;64985;46.364;17.008;2024-01-16T07:15:15;25.50;;;10.50;;
76202;SDS011;64985;46.364;17.008;2024-01-16T07:18:17;25.58;;;10.70;;
76202;SDS011;64985;46.364;17.008;2024-01-16T07:21:20;29.02;;;11.38;;
76202;SDS011;64985;46.364;17.008;2024-01-16T07:24:23;33.50;;;12.80;;
76202;SDS011;64985;46.364;17.008;2024-01-16T07:27:26;39.75;;;15.00;;
76202;SDS011;64985;46.364;17.008;2024-01-16T07:30:28;41.85;;;16.65;;
76202;SDS011;64985;46.364;17.008;2024-01-16T07:33:31;31.83;;;13.07;;
76202;SDS011;64985;46.364;17.008;2024-01-16T07:36:34;34.08;;;13.13;;
76202;SDS011;64985;46.364;17.008;2024-01-16T07:39:36;41.67;;;14.68;;
76202;SDS011;64985;46.364;17.008;2024-01-16T07:42:38;69.60;;;29.25;;
76202;SDS011;64985;46.364;17.008;2024-01-16T07:45:41;25.83;;;11.60;;
76202;SDS011;64985;46.364;17.008;2024-01-16T07:48:43;28.77;;;12.48;;
76202;SDS011;64985;46.364;17.008;2024-01-16T07:51:46;28.15;;;10.88;;
76202;SDS011;64985;46.364;17.008;2024-01-16T07:54:48;26.70;;;11.25;;
76202;SDS011;64985;46.364;17.008;2024-01-16T07:57:50;26.08;;;11.00;;
76202;SDS011;64985;46.364;17.008;2024-01-16T08:00:53;28.00;;;12.20;;
76202;SDS011;64985;46.364;17.008;2024-01-16T08:03:56;23.05;;;10.30;;
76202;SDS011;64985;46.364;17.008;2024-01-16T08:06:58;25.13;;;10.05;;
76202;SDS011;64985;46.364;17.008;2024-01-16T08:10:00;26.65;;;10.40;;
76202;SDS011;64985;46.364;17.008;2024-01-16T08:13:03;26.42;;;9.95;;
76202;SDS011;64985;46.364;17.008;2024-01-16T08:16:05;25.70;;;10.23;;
76202;SDS011;64985;46.364;17.008;2024-01-16T08:19:13;33.83;;;14.60;;
76202;SDS011;64985;46.364;17.008;2024-01-16T08:22:16;26.27;;;10.30;;
76202;SDS011;64985;46.364;17.008;2024-01-16T08:25:18;24.40;;;9.50;;
76202;SDS011;64985;46.364;17.008;2024-01-16T08:28:20;24.85;;;10.65;;
76202;SDS011;64985;46.364;17.008;2024-01-16T08:31:25;24.50;;;10.13;;
76202;SDS011;64985;46.364;17.008;2024-01-16T08:34:28;24.40;;;10.73;;
76202;SDS011;64985;46.364;17.008;2024-01-16T08:37:33;25.60;;;9.95;;
76202;SDS011;64985;46.364;17.008;2024-01-16T08:40:36;23.80;;;9.88;;
76202;SDS011;64985;46.364;17.008;2024-01-16T08:43:38;34.83;;;14.98;;
76202;SDS011;64985;46.364;17.008;2024-01-16T08:46:40;20.50;;;8.70;;
76202;SDS011;64985;46.364;17.008;2024-01-16T08:49:42;23.35;;;10.05;;
76202;SDS011;64985;46.364;17.008;2024-01-16T08:52:45;26.40;;;11.70;;
76202;SDS011;64985;46.364;17.008;2024-01-16T08:55:47;23.98;;;11.40;;
76202;SDS011;64985;46.364;17.008;2024-01-16T08:58:49;24.52;;;10.23;;
76202;SDS011;64985;46.364;17.008;2024-01-16T09:01:51;31.65;;;11.60;;
76202;SDS011;64985;46.364;17.008;2024-01-16T09:04:54;29.67;;;12.50;;
76202;SDS011;64985;46.364;17.008;2024-01-16T09:07:57;26.45;;;11.30;;
76202;SDS011;64985;46.364;17.008;2024-01-16T09:10:59;21.92;;;9.60;;
76202;SDS011;64985;46.364;17.008;2024-01-16T09:14:02;24.10;;;11.30;;
76202;SDS011;64985;46.364;17.008;2024-01-16T09:17:05;22.52;;;10.57;;
76202;SDS011;64985;46.364;17.008;2024-01-16T09:20:07;24.63;;;10.40;;
76202;SDS011;64985;46.364;17.008;2024-01-16T09:23:10;19.40;;;8.90;;
76202;SDS011;64985;46.364;17.008;2024-01-16T09:26:13;19.15;;;9.30;;
76202;SDS011;64985;46.364;17.008;2024-01-16T09:29:15;19.98;;;9.57;;
76202;SDS011;64985;46.364;17.008;2024-01-16T09:32:18;22.38;;;9.85;;
76202;SDS011;64985;46.364;17.008;2024-01-16T09:35:20;21.40;;;10.43;;
76202;SDS011;64985;46.364;17.008;2024-01-16T09:38:23;22.35;;;9.93;;
76202;SDS011;64985;46.364;17.008;2024-01-16T09:41:26;21.17;;;9.73;;
76202;SDS011;64985;46.364;17.008;2024-01-16T09:44:28;22.88;;;10.57;;
76202;SDS011;64985;46.364;17.008;2024-01-16T09:47:31;20.88;;;9.77;;
76202;SDS011;64985;46.364;17.008;2024-01-16T09:50:34;20.55;;;9.18;;
76202;SDS011;64985;46.364;17.008;2024-01-16T09:53:37;20.40;;;10.40;;
76202;SDS011;64985;46.364;17.008;2024-01-16T09:56:42;21.38;;;11.00;;
76202;SDS011;64985;46.364;17.008;2024-01-16T09:59:45;23.55;;;11.65;;
76202;SDS011;64985;46.364;17.008;2024-01-16T10:02:49;22.88;;;12.00;;
76202;SDS011;64985;46.364;17.008;2024-01-16T10:05:52;22.05;;;11.43;;
76202;SDS011;64985;46.364;17.008;2024-01-16T10:08:55;27.67;;;13.07;;
76202;SDS011;64985;46.364;17.008;2024-01-16T10:11:57;24.85;;;12.00;;
76202;SDS011;64985;46.364;17.008;2024-01-16T10:15:02;25.13;;;12.68;;
76202;SDS011;64985;46.364;17.008;2024-01-16T10:18:19;25.67;;;12.80;;
76202;SDS011;64985;46.364;17.008;2024-01-16T10:21:25;26.65;;;12.05;;
76202;SDS011;64985;46.364;17.008;2024-01-16T10:24:31;31.40;;;15.25;;
76202;SDS011;64985;46.364;17.008;2024-01-16T10:27:35;23.30;;;11.27;;
76202;SDS011;64985;46.364;17.008;2024-01-16T10:30:38;66.53;;;24.33;;
76202;SDS011;64985;46.364;17.008;2024-01-16T10:33:40;38.35;;;19.00;;
76202;SDS011;64985;46.364;17.008;2024-01-16T10:36:43;22.50;;;11.23;;
76202;SDS011;64985;46.364;17.008;2024-01-16T10:39:49;36.97;;;16.95;;
76202;SDS011;64985;46.364;17.008;2024-01-16T10:43:01;24.85;;;11.23;;
76202;SDS011;64985;46.364;17.008;2024-01-16T10:46:09;24.30;;;11.60;;
76202;SDS011;64985;46.364;17.008;2024-01-16T10:49:23;18.60;;;9.50;;
76202;SDS011;64985;46.364;17.008;2024-01-16T10:52:34;18.08;;;9.60;;
76202;SDS011;64985;46.364;17.008;2024-01-16T10:55:48;21.88;;;11.40;;
76202;SDS011;64985;46.364;17.008;2024-01-16T10:59:06;19.50;;;9.82;;
76202;SDS011;64985;46.364;17.008;2024-01-16T11:02:13;18.90;;;8.68;;
76202;SDS011;64985;46.364;17.008;2024-01-16T11:05:19;62.80;;;21.33;;
76202;SDS011;64985;46.364;17.008;2024-01-16T11:08:27;39.60;;;14.80;;
76202;SDS011;64985;46.364;17.008;2024-01-16T11:11:32;18.98;;;9.25;;
76202;SDS011;64985;46.364;17.008;2024-01-16T11:14:36;19.98;;;9.68;;
76202;SDS011;64985;46.364;17.008;2024-01-16T11:17:39;19.17;;;10.23;;
76202;SDS011;64985;46.364;17.008;2024-01-16T11:20:45;17.77;;;9.95;;
76202;SDS011;64985;46.364;17.008;2024-01-16T11:24:07;22.10;;;9.98;;
76202;SDS011;64985;46.364;17.008;2024-01-16T11:27:09;22.05;;;11.60;;
76202;SDS011;64985;46.364;17.008;2024-01-16T11:30:30;18.13;;;9.10;;
76202;SDS011;64985;46.364;17.008;2024-01-16T11:36:51;21.83;;;10.60;;
76202;SDS011;64985;46.364;17.008;2024-01-16T11:46:59;16.17;;;8.80;;
76202;SDS011;64985;46.364;17.008;2024-01-16T11:50:11;14.23;;;7.55;;
76202;SDS011;64985;46.364;17.008;2024-01-16T11:53:30;13.40;;;7.68;;
76202;SDS011;64985;46.364;17.008;2024-01-16T12:00:08;14.82;;;7.97;;
76202;SDS011;64985;46.364;17.008;2024-01-16T12:03:21;15.10;;;7.55;;
76202;SDS011;64985;46.364;17.008;2024-01-16T12:06:36;14.15;;;7.28;;
76202;SDS011;64985;46.364;17.008;2024-01-16T12:09:40;15.48;;;7.68;;
76202;SDS011;64985;46.364;17.008;2024-01-16T12:12:42;15.00;;;7.72;;
76202;SDS011;64985;46.364;17.008;2024-01-16T12:15:44;20.95;;;7.72;;
76202;SDS011;64985;46.364;17.008;2024-01-16T12:18:47;17.13;;;8.60;;
76202;SDS011;64985;46.364;17.008;2024-01-16T12:21:50;19.95;;;9.32;;
76202;SDS011;64985;46.364;17.008;2024-01-16T12:24:55;22.77;;;9.10;;
76202;SDS011;64985;46.364;17.008;2024-01-16T12:28:03;18.48;;;8.07;;
76202;SDS011;64985;46.364;17.008;2024-01-16T12:31:08;17.03;;;8.33;;
76202;SDS011;64985;46.364;17.008;2024-01-16T12:34:10;13.73;;;7.65;;
76202;SDS011;64985;46.364;17.008;2024-01-16T12:37:13;17.92;;;8.65;;
76202;SDS011;64985;46.364;17.008;2024-01-16T12:40:16;19.67;;;9.15;;
76202;SDS011;64985;46.364;17.008;2024-01-16T12:43:19;18.90;;;9.10;;
76202;SDS011;64985;46.364;17.008;2024-01-16T12:46:21;17.92;;;8.63;;
76202;SDS011;64985;46.364;17.008;2024-01-16T12:49:24;20.58;;;9.70;;
76202;SDS011;64985;46.364;17.008;2024-01-16T12:52:27;18.73;;;8.60;;
76202;SDS011;64985;46.364;17.008;2024-01-16T12:55:32;19.67;;;9.02;;
76202;SDS011;64985;46.364;17.008;2024-01-16T12:58:35;19.25;;;8.77;;
76202;SDS011;64985;46.364;17.008;2024-01-16T13:01:42;20.58;;;9.25;;
76202;SDS011;64985;46.364;17.008;2024-01-16T13:04:46;51.97;;;17.83;;
76202;SDS011;64985;46.364;17.008;2024-01-16T13:08:02;43.80;;;14.35;;
76202;SDS011;64985;46.364;17.008;2024-01-16T13:11:05;34.80;;;13.63;;
76202;SDS011;64985;46.364;17.008;2024-01-16T13:14:09;26.25;;;10.90;;
76202;SDS011;64985;46.364;17.008;2024-01-16T13:17:11;62.45;;;20.73;;
76202;SDS011;64985;46.364;17.008;2024-01-16T13:20:13;155.18;;;43.97;;
76202;SDS011;64985;46.364;17.008;2024-01-16T13:23:18;78.88;;;24.55;;
76202;SDS011;64985;46.364;17.008;2024-01-16T13:26:21;179.73;;;53.65;;
76202;SDS011;64985;46.364;17.008;2024-01-16T13:29:23;23.23;;;10.07;;
76202;SDS011;64985;46.364;17.008;2024-01-16T13:32:26;24.73;;;10.88;;
76202;SDS011;64985;46.364;17.008;2024-01-16T13:35:28;17.33;;;8.73;;
76202;SDS011;64985;46.364;17.008;2024-01-16T13:38:30;22.00;;;10.60;;
76202;SDS011;64985;46.364;17.008;2024-01-16T13:41:33;21.20;;;9.82;;
76202;SDS011;64985;46.364;17.008;2024-01-16T13:44:35;21.50;;;9.90;;
76202;SDS011;64985;46.364;17.008;2024-01-16T13:47:38;31.13;;;15.15;;
76202;SDS011;64985;46.364;17.008;2024-01-16T13:50:43;25.52;;;11.80;;
76202;SDS011;64985;46.364;17.008;2024-01-16T13:53:46;32.72;;;12.93;;
76202;SDS011;64985;46.364;17.008;2024-01-16T13:56:48;25.27;;;12.68;;
76202;SDS011;64985;46.364;17.008;2024-01-16T14:00:08;32.83;;;15.30;;
76202;SDS011;64985;46.364;17.008;2024-01-16T14:03:15;26.10;;;11.98;;
76202;SDS011;64985;46.364;17.008;2024-01-16T14:06:19;27.95;;;12.23;;
76202;SDS011;64985;46.364;17.008;2024-01-16T14:09:41;31.90;;;14.75;;
76202;SDS011;64985;46.364;17.008;2024-01-16T14:12:47;31.30;;;14.95;;
76202;SDS011;64985;46.364;17.008;2024-01-16T14:15:53;31.45;;;13.20;;
76202;SDS011;64985;46.364;17.008;2024-01-16T14:18:55;24.90;;;11.48;;
76202;SDS011;64985;46.364;17.008;2024-01-16T14:21:57;25.83;;;12.13;;
76202;SDS011;64985;46.364;17.008;2024-01-16T14:25:00;27.25;;;11.93;;
76202;SDS011;64985;46.364;17.008;2024-01-16T14:28:03;26.75;;;11.30;;
76202;SDS011;64985;46.364;17.008;2024-01-16T14:31:05;24.85;;;11.23;;
76202;SDS011;64985;46.364;17.008;2024-01-16T14:34:11;24.10;;;11.93;;
76202;SDS011;64985;46.364;17.008;2024-01-16T14:37:14;29.60;;;12.65;;
76202;SDS011;64985;46.364;17.008;2024-01-16T14:40:18;23.83;;;10.50;;
76202;SDS011;64985;46.364;17.008;2024-01-16T14:43:27;22.83;;;11.02;;
76202;SDS011;64985;46.364;17.008;2024-01-16T14:46:29;22.40;;;10.68;;
76202;SDS011;64985;46.364;17.008;2024-01-16T14:49:31;24.83;;;11.52;;
76202;SDS011;64985;46.364;17.008;2024-01-16T14:52:34;23.48;;;11.80;;
76202;SDS011;64985;46.364;17.008;2024-01-16T14:55:37;24.55;;;10.65;;
76202;SDS011;64985;46.364;17.008;2024-01-16T14:58:39;21.33;;;9.93;;
76202;SDS011;64985;46.364;17.008;2024-01-16T15:01:42;23.27;;;11.25;;
76202;SDS011;64985;46.364;17.008;2024-01-16T15:04:46;21.20;;;10.25;;
76202;SDS011;64985;46.364;17.008;2024-01-16T15:07:49;23.30;;;10.45;;
76202;SDS011;64985;46.364;17.008;2024-01-16T15:10:57;22.20;;;10.32;;
76202;SDS011;64985;46.364;17.008;2024-01-16T15:14:01;23.85;;;10.52;;
76202;SDS011;64985;46.364;17.008;2024-01-16T15:17:04;22.27;;;10.45;;
76202;SDS011;64985;46.364;17.008;2024-01-16T15:20:09;21.63;;;9.98;;
76202;SDS011;64985;46.364;17.008;2024-01-16T15:23:12;23.10;;;10.00;;
76202;SDS011;64985;46.364;17.008;2024-01-16T15:26:14;23.33;;;11.07;;
76202;SDS011;64985;46.364;17.008;2024-01-16T15:29:23;21.50;;;10.60;;
76202;SDS011;64985;46.364;17.008;2024-01-16T15:32:26;24.42;;;11.02;;
76202;SDS011;64985;46.364;17.008;2024-01-16T15:35:28;25.08;;;11.00;;
76202;SDS011;64985;46.364;17.008;2024-01-16T15:38:31;25.08;;;11.20;;
76202;SDS011;64985;46.364;17.008;2024-01-16T15:41:33;22.92;;;10.98;;
76202;SDS011;64985;46.364;17.008;2024-01-16T15:44:36;24.33;;;11.38;;
76202;SDS011;64985;46.364;17.008;2024-01-16T15:47:38;24.48;;;11.20;;
76202;SDS011;64985;46.364;17.008;2024-01-16T15:50:41;83.57;;;27.45;;
76202;SDS011;64985;46.364;17.008;2024-01-16T15:53:43;196.85;;;58.70;;
76202;SDS011;64985;46.364;17.008;2024-01-16T15:56:46;172.40;;;51.80;;
76202;SDS011;64985;46.364;17.008;2024-01-16T15:59:52;157.50;;;49.15;;
76202;SDS011;64985;46.364;17.008;2024-01-16T16:02:54;104.07;;;34.97;;
76202;SDS011;64985;46.364;17.008;2024-01-16T16:05:56;31.20;;;13.00;;
76202;SDS011;64985;46.364;17.008;2024-01-16T16:08:58;32.97;;;14.68;;
76202;SDS011;64985;46.364;17.008;2024-01-16T16:12:03;30.30;;;14.35;;
76202;SDS011;64985;46.364;17.008;2024-01-16T16:15:06;29.13;;;13.00;;
76202;SDS011;64985;46.364;17.008;2024-01-16T16:18:08;29.27;;;13.07;;
76202;SDS011;64985;46.364;17.008;2024-01-16T16:21:11;29.33;;;13.32;;
76202;SDS011;64985;46.364;17.008;2024-01-16T16:24:13;35.15;;;13.93;;
76202;SDS011;64985;46.364;17.008;2024-01-16T16:27:22;32.78;;;14.20;;
76202;SDS011;64985;46.364;17.008;2024-01-16T16:30:28;32.50;;;15.02;;
76202;SDS011;64985;46.364;17.008;2024-01-16T16:33:31;35.60;;;14.30;;
76202;SDS011;64985;46.364;17.008;2024-01-16T16:36:35;31.30;;;14.13;;
76202;SDS011;64985;46.364;17.008;2024-01-16T16:39:40;30.38;;;13.23;;
76202;SDS011;64985;46.364;17.008;2024-01-16T16:42:44;33.03;;;13.10;;
76202;SDS011;64985;46.364;17.008;2024-01-16T16:45:46;29.02;;;12.68;;
76202;SDS011;64985;46.364;17.008;2024-01-16T16:48:51;30.90;;;14.32;;
76202;SDS011;64985;46.364;17.008;2024-01-16T16:51:53;34.55;;;13.90;;
76202;SDS011;64985;46.364;17.008;2024-01-16T16:54:55;34.58;;;14.45;;
76202;SDS011;64985;46.364;17.008;2024-01-16T16:57:57;35.17;;;14.65;;
76202;SDS011;64985;46.364;17.008;2024-01-16T17:01:00;35.83;;;15.27;;
76202;SDS011;64985;46.364;17.008;2024-01-16T17:04:02;36.47;;;15.38;;
76202;SDS011;64985;46.364;17.008;2024-01-16T17:07:05;38.40;;;15.38;;
76202;SDS011;64985;46.364;17.008;2024-01-16T17:10:13;37.88;;;15.52;;
76202;SDS011;64985;46.364;17.008;2024-01-16T17:13:16;40.53;;;16.80;;
76202;SDS011;64985;46.364;17.008;2024-01-16T17:16:18;38.20;;;15.82;;
76202;SDS011;64985;46.364;17.008;2024-01-16T17:19:24;51.03;;;19.45;;
76202;SDS011;64985;46.364;17.008;2024-01-16T17:22:27;50.13;;;19.00;;
76202;SDS011;64985;46.364;17.008;2024-01-16T17:25:29;69.63;;;26.67;;
76202;SDS011;64985;46.364;17.008;2024-01-16T17:28:32;58.03;;;20.30;;
76202;SDS011;64985;46.364;17.008;2024-01-16T17:31:34;54.53;;;20.10;;
76202;SDS011;64985;46.364;17.008;2024-01-16T17:34:39;51.85;;;17.05;;
76202;SDS011;64985;46.364;17.008;2024-01-16T17:37:41;54.15;;;17.48;;
76202;SDS011;64985;46.364;17.008;2024-01-16T17:40:44;47.20;;;16.45;;
76202;SDS011;64985;46.364;17.008;2024-01-16T17:43:47;132.45;;;41.03;;
76202;SDS011;64985;46.364;17.008;2024-01-16T17:46:49;48.38;;;16.10;;
76202;SDS011;64985;46.364;17.008;2024-01-16T17:49:52;59.45;;;17.80;;
76202;SDS011;64985;46.364;17.008;2024-01-16T17:52:54;94.32;;;26.10;;
76202;SDS011;64985;46.364;17.008;2024-01-16T17:55:59;72.70;;;13.85;;